sensor_id;sensor_type;location;lat;lon;timestamp;P1;durP1;ratioP1;P2;durP2;ratioP2
19923;SDS011;10124;53.068;18.224;2023-02-26T08:08:24;13.53;;;8.43;;
19923;SDS011;10124;53.068;18.224;2023-02-26T08:10:54;16.37;;;9.60;;
19923;SDS011;10124;53.068;18.224;2023-02-26T08:13:22;22.20;;;10.37;;
19923;SDS011;10124;53.068;18.224;2023-02-26T08:15:52;13.60;;;8.90;;
19923;SDS011;10124;53.068;18.224;2023-02-26T08:18:20;41.17;;;21.73;;
19923;SDS011;10124;53.068;18.224;2023-02-26T08:20:52;14.97;;;7.97;;
19923;SDS011;10124;53.068;18.224;2023-02-26T08:23:21;7.00;;;4.67;;
19923;SDS011;10124;53.068;18.224;2023-02-26T08:25:49;10.23;;;5.43;;
19923;SDS011;10124;53.068;18.224;2023-02-26T08:28:17;18.73;;;10.27;;
19923;SDS011;10124;53.068;18.224;2023-02-26T08:30:45;16.00;;;8.60;;
19923;SDS011;10124;53.068;18.224;2023-02-26T08:33:15;30.93;;;16.87;;
19923;SDS011;10124;53.068;18.224;2023-02-26T08:35:44;14.10;;;8.23;;
19923;SDS011;10124;53.068;18.224;2023-02-26T08:38:13;20.33;;;11.27;;
19923;SDS011;10124;53.068;18.224;2023-02-26T08:40:41;14.90;;;10.20;;
19923;SDS011;10124;53.068;18.224;2023-02-26T08:43:10;14.37;;;8.10;;
19923;SDS011;10124;53.068;18.224;2023-02-26T08:45:39;11.97;;;6.97;;
19923;SDS011;10124;53.068;18.224;2023-02-26T08:48:08;14.17;;;6.33;;
19923;SDS011;10124;53.068;18.224;2023-02-26T08:50:38;12.33;;;7.10;;
19923;SDS011;10124;53.068;18.224;2023-02-26T08:53:08;12.50;;;6.53;;
19923;SDS011;10124;53.068;18.224;2023-02-26T08:55:40;12.87;;;6.10;;
19923;SDS011;10124;53.068;18.224;2023-02-26T08:58:08;14.07;;;6.87;;
19923;SDS011;10124;53.068;18.224;2023-02-26T09:00:37;10.63;;;5.63;;
19923;SDS011;10124;53.068;18.224;2023-02-26T09:03:06;10.40;;;4.80;;
19923;SDS011;10124;53.068;18.224;2023-02-26T09:05:35;13.23;;;7.40;;
19923;SDS011;10124;53.068;18.224;2023-02-26T09:08:04;33.77;;;20.97;;
19923;SDS011;10124;53.068;18.224;2023-02-26T09:10:35;32.47;;;21.50;;
19923;SDS011;10124;53.068;18.224;2023-02-26T09:13:07;15.30;;;7.40;;
19923;SDS011;10124;53.068;18.224;2023-02-26T09:15:36;18.63;;;9.23;;
19923;SDS011;10124;53.068;18.224;2023-02-26T09:18:05;13.17;;;6.67;;
19923;SDS011;10124;53.068;18.224;2023-02-26T09:20:34;18.00;;;7.83;;
19923;SDS011;10124;53.068;18.224;2023-02-26T09:23:04;16.60;;;8.23;;
19923;SDS011;10124;53.068;18.224;2023-02-26T09:25:33;12.73;;;7.33;;
19923;SDS011;10124;53.068;18.224;2023-02-26T09:28:05;16.87;;;7.83;;
19923;SDS011;10124;53.068;18.224;2023-02-26T09:30:35;11.40;;;5.60;;
19923;SDS011;10124;53.068;18.224;2023-02-26T09:33:07;10.10;;;3.70;;
19923;SDS011;10124;53.068;18.224;2023-02-26T09:35:38;11.83;;;4.60;;
19923;SDS011;10124;53.068;18.224;2023-02-26T09:38:06;13.10;;;3.97;;
19923;SDS011;10124;53.068;18.224;2023-02-26T09:40:39;7.87;;;4.13;;
19923;SDS011;10124;53.068;18.224;2023-02-26T09:43:27;6.47;;;3.40;;
19923;SDS011;10124;53.068;18.224;2023-02-26T09:46:27;5.90;;;3.00;;
19923;SDS011;10124;53.068;18.224;2023-02-26T09:49:19;6.77;;;2.70;;
19923;SDS011;10124;53.068;18.224;2023-02-26T09:52:04;4.43;;;2.70;;
19923;SDS011;10124;53.068;18.224;2023-02-26T09:54:55;4.00;;;2.27;;
19923;SDS011;10124;53.068;18.224;2023-02-26T09:57:33;8.87;;;2.20;;
19923;SDS011;10124;53.068;18.224;2023-02-26T10:00:15;9.07;;;3.40;;
19923;SDS011;10124;53.068;18.224;2023-02-26T10:08:35;22.88;;;6.35;;
19923;SDS011;10124;53.068;18.224;2023-02-26T10:11:12;5.05;;;2.72;;
19923;SDS011;10124;53.068;18.224;2023-02-26T10:13:51;5.18;;;2.50;;
19923;SDS011;10124;53.068;18.224;2023-02-26T10:16:26;5.95;;;2.85;;
19923;SDS011;10124;53.068;18.224;2023-02-26T10:18:59;7.50;;;3.03;;
19923;SDS011;10124;53.068;18.224;2023-02-26T10:21:41;5.83;;;2.80;;
19923;SDS011;10124;53.068;18.224;2023-02-26T10:24:48;12.90;;;6.87;;
19923;SDS011;10124;53.068;18.224;2023-02-26T10:27:20;7.23;;;3.50;;
19923;SDS011;10124;53.068;18.224;2023-02-26T10:35:53;35.50;;;17.40;;
19923;SDS011;10124;53.068;18.224;2023-02-26T10:38:28;8.13;;;3.57;;
19923;SDS011;10124;53.068;18.224;2023-02-26T10:40:59;8.37;;;3.00;;
19923;SDS011;10124;53.068;18.224;2023-02-26T10:43:47;4.23;;;2.80;;
19923;SDS011;10124;53.068;18.224;2023-02-26T10:46:29;12.80;;;4.33;;
19923;SDS011;10124;53.068;18.224;2023-02-26T10:52:14;9.13;;;3.70;;
19923;SDS011;10124;53.068;18.224;2023-02-26T10:54:47;10.40;;;3.47;;
19923;SDS011;10124;53.068;18.224;2023-02-26T10:57:30;8.40;;;2.90;;
19923;SDS011;10124;53.068;18.224;2023-02-26T11:00:03;9.30;;;3.83;;
19923;SDS011;10124;53.068;18.224;2023-02-26T11:02:38;7.33;;;2.80;;
19923;SDS011;10124;53.068;18.224;2023-02-26T11:05:28;10.73;;;3.43;;
19923;SDS011;10124;53.068;18.224;2023-02-26T11:07:59;9.90;;;3.77;;
19923;SDS011;10124;53.068;18.224;2023-02-26T11:10:44;8.13;;;4.10;;
19923;SDS011;10124;53.068;18.224;2023-02-26T11:13:14;9.90;;;6.10;;
19923;SDS011;10124;53.068;18.224;2023-02-26T11:15:42;12.70;;;6.93;;
19923;SDS011;10124;53.068;18.224;2023-02-26T11:18:16;6.40;;;2.93;;
19923;SDS011;10124;53.068;18.224;2023-02-26T11:20:53;18.83;;;7.20;;
19923;SDS011;10124;53.068;18.224;2023-02-26T11:23:25;26.63;;;6.97;;
19923;SDS011;10124;53.068;18.224;2023-02-26T11:26:13;14.37;;;7.10;;
19923;SDS011;10124;53.068;18.224;2023-02-26T11:28:48;10.87;;;3.50;;
19923;SDS011;10124;53.068;18.224;2023-02-26T11:31:20;6.47;;;3.00;;
19923;SDS011;10124;53.068;18.224;2023-02-26T11:34:04;8.97;;;2.93;;
19923;SDS011;10124;53.068;18.224;2023-02-26T11:36:38;6.90;;;2.70;;
19923;SDS011;10124;53.068;18.224;2023-02-26T11:39:14;7.07;;;3.40;;
19923;SDS011;10124;53.068;18.224;2023-02-26T11:41:47;8.37;;;3.10;;
19923;SDS011;10124;53.068;18.224;2023-02-26T11:44:23;4.90;;;3.23;;
19923;SDS011;10124;53.068;18.224;2023-02-26T11:46:55;5.60;;;3.20;;
19923;SDS011;10124;53.068;18.224;2023-02-26T11:49:26;8.40;;;4.10;;
19923;SDS011;10124;53.068;18.224;2023-02-26T11:54:36;8.43;;;3.80;;
19923;SDS011;10124;53.068;18.224;2023-02-26T11:57:06;7.60;;;3.33;;
19923;SDS011;10124;53.068;18.224;2023-02-26T11:59:43;4.40;;;2.50;;
19923;SDS011;10124;53.068;18.224;2023-02-26T12:02:17;8.10;;;3.63;;
19923;SDS011;10124;53.068;18.224;2023-02-26T12:04:54;7.47;;;3.33;;
19923;SDS011;10124;53.068;18.224;2023-02-26T12:07:24;6.73;;;3.40;;
19923;SDS011;10124;53.068;18.224;2023-02-26T12:09:52;11.43;;;6.07;;
19923;SDS011;10124;53.068;18.224;2023-02-26T12:12:40;10.07;;;3.70;;
19923;SDS011;10124;53.068;18.224;2023-02-26T12:15:27;6.97;;;3.70;;
19923;SDS011;10124;53.068;18.224;2023-02-26T12:20:27;14.57;;;8.33;;
19923;SDS011;10124;53.068;18.224;2023-02-26T12:28:41;6.40;;;2.53;;
19923;SDS011;10124;53.068;18.224;2023-02-26T12:43:18;8.50;;;3.83;;
19923;SDS011;10124;53.068;18.224;2023-02-26T13:18:42;20.63;;;6.83;;
19923;SDS011;10124;53.068;18.224;2023-02-26T13:24:06;22.03;;;7.07;;
19923;SDS011;10124;53.068;18.224;2023-02-26T13:26:42;13.10;;;5.37;;
19923;SDS011;10124;53.068;18.224;2023-02-26T13:29:20;22.23;;;12.90;;
19923;SDS011;10124;53.068;18.224;2023-02-26T13:31:58;38.07;;;12.90;;
19923;SDS011;10124;53.068;18.224;2023-02-26T13:34:41;42.87;;;17.60;;
19923;SDS011;10124;53.068;18.224;2023-02-26T13:37:32;12.90;;;7.20;;
19923;SDS011;10124;53.068;18.224;2023-02-26T13:45:10;29.43;;;13.70;;
19923;SDS011;10124;53.068;18.224;2023-02-26T13:50:41;26.63;;;10.40;;
19923;SDS011;10124;53.068;18.224;2023-02-26T13:56:05;47.60;;;17.43;;
19923;SDS011;10124;53.068;18.224;2023-02-26T13:58:40;35.57;;;20.50;;
19923;SDS011;10124;53.068;18.224;2023-02-26T14:24:44;14.30;;;7.27;;
19923;SDS011;10124;53.068;18.224;2023-02-26T14:35:23;64.00;;;32.90;;
19923;SDS011;10124;53.068;18.224;2023-02-26T14:38:04;39.07;;;21.53;;
19923;SDS011;10124;53.068;18.224;2023-02-26T14:40:49;17.80;;;9.57;;
19923;SDS011;10124;53.068;18.224;2023-02-26T14:43:37;14.43;;;8.03;;
19923;SDS011;10124;53.068;18.224;2023-02-26T14:46:11;14.80;;;8.63;;
19923;SDS011;10124;53.068;18.224;2023-02-26T14:48:40;20.50;;;11.00;;
19923;SDS011;10124;53.068;18.224;2023-02-26T14:51:25;15.03;;;7.47;;
19923;SDS011;10124;53.068;18.224;2023-02-26T15:02:59;16.07;;;8.13;;
19923;SDS011;10124;53.068;18.224;2023-02-26T15:08:45;22.93;;;10.80;;
19923;SDS011;10124;53.068;18.224;2023-02-26T15:24:13;61.40;;;25.90;;
19923;SDS011;10124;53.068;18.224;2023-02-26T15:26:49;31.57;;;15.03;;
19923;SDS011;10124;53.068;18.224;2023-02-26T15:29:24;20.20;;;9.40;;
19923;SDS011;10124;53.068;18.224;2023-02-26T15:32:00;13.10;;;6.27;;
19923;SDS011;10124;53.068;18.224;2023-02-26T15:34:32;14.23;;;6.50;;
19923;SDS011;10124;53.068;18.224;2023-02-26T15:37:00;11.60;;;6.23;;
19923;SDS011;10124;53.068;18.224;2023-02-26T15:39:28;15.60;;;7.53;;
19923;SDS011;10124;53.068;18.224;2023-02-26T15:41:57;18.73;;;9.50;;
19923;SDS011;10124;53.068;18.224;2023-02-26T15:44:27;15.37;;;8.53;;
19923;SDS011;10124;53.068;18.224;2023-02-26T15:47:00;13.70;;;7.37;;
19923;SDS011;10124;53.068;18.224;2023-02-26T15:49:37;19.33;;;9.70;;
19923;SDS011;10124;53.068;18.224;2023-02-26T15:52:08;26.30;;;14.90;;
19923;SDS011;10124;53.068;18.224;2023-02-26T15:57:18;23.57;;;12.60;;
19923;SDS011;10124;53.068;18.224;2023-02-26T15:59:48;15.77;;;8.87;;
19923;SDS011;10124;53.068;18.224;2023-02-26T16:02:21;25.63;;;11.37;;
19923;SDS011;10124;53.068;18.224;2023-02-26T16:04:54;22.93;;;11.23;;
19923;SDS011;10124;53.068;18.224;2023-02-26T16:07:22;18.73;;;9.50;;
19923;SDS011;10124;53.068;18.224;2023-02-26T16:09:53;29.80;;;14.37;;
19923;SDS011;10124;53.068;18.224;2023-02-26T16:12:43;24.27;;;12.73;;
19923;SDS011;10124;53.068;18.224;2023-02-26T16:15:12;20.67;;;11.43;;
19923;SDS011;10124;53.068;18.224;2023-02-26T16:17:43;15.60;;;8.70;;
19923;SDS011;10124;53.068;18.224;2023-02-26T16:20:17;26.13;;;14.87;;
19923;SDS011;10124;53.068;18.224;2023-02-26T16:22:48;27.07;;;14.03;;
19923;SDS011;10124;53.068;18.224;2023-02-26T16:30:34;55.20;;;30.17;;
19923;SDS011;10124;53.068;18.224;2023-02-26T16:33:08;10.43;;;5.97;;
19923;SDS011;10124;53.068;18.224;2023-02-26T16:35:47;19.57;;;9.60;;
19923;SDS011;10124;53.068;18.224;2023-02-26T16:38:29;17.67;;;10.37;;
19923;SDS011;10124;53.068;18.224;2023-02-26T16:41:21;17.63;;;10.00;;
19923;SDS011;10124;53.068;18.224;2023-02-26T16:43:53;12.03;;;6.20;;
19923;SDS011;10124;53.068;18.224;2023-02-26T16:49:25;51.93;;;25.77;;
19923;SDS011;10124;53.068;18.224;2023-02-26T16:51:58;38.57;;;21.93;;
19923;SDS011;10124;53.068;18.224;2023-02-26T16:54:28;50.77;;;27.23;;
19923;SDS011;10124;53.068;18.224;2023-02-26T16:59:50;67.27;;;30.20;;
19923;SDS011;10124;53.068;18.224;2023-02-26T17:02:22;211.13;;;72.87;;
19923;SDS011;10124;53.068;18.224;2023-02-26T17:04:53;53.00;;;26.70;;
19923;SDS011;10124;53.068;18.224;2023-02-26T17:07:31;137.70;;;53.10;;
19923;SDS011;10124;53.068;18.224;2023-02-26T17:10:06;143.73;;;58.63;;
19923;SDS011;10124;53.068;18.224;2023-02-26T17:12:48;145.93;;;64.17;;
19923;SDS011;10124;53.068;18.224;2023-02-26T17:15:19;270.60;;;108.40;;
19923;SDS011;10124;53.068;18.224;2023-02-26T17:17:56;111.30;;;51.30;;
19923;SDS011;10124;53.068;18.224;2023-02-26T17:20:25;112.30;;;51.70;;
19923;SDS011;10124;53.068;18.224;2023-02-26T17:22:54;91.13;;;42.47;;
19923;SDS011;10124;53.068;18.224;2023-02-26T17:25:22;113.83;;;51.40;;
19923;SDS011;10124;53.068;18.224;2023-02-26T17:27:55;153.57;;;65.00;;
19923;SDS011;10124;53.068;18.224;2023-02-26T17:30:23;70.97;;;29.60;;
19923;SDS011;10124;53.068;18.224;2023-02-26T17:32:51;76.63;;;31.67;;
19923;SDS011;10124;53.068;18.224;2023-02-26T17:35:20;95.30;;;43.70;;
19923;SDS011;10124;53.068;18.224;2023-02-26T17:37:48;121.90;;;52.43;;
19923;SDS011;10124;53.068;18.224;2023-02-26T17:40:19;122.90;;;58.60;;
19923;SDS011;10124;53.068;18.224;2023-02-26T17:42:51;167.30;;;86.43;;
19923;SDS011;10124;53.068;18.224;2023-02-26T17:45:19;71.27;;;42.00;;
19923;SDS011;10124;53.068;18.224;2023-02-26T17:47:47;81.40;;;42.57;;
19923;SDS011;10124;53.068;18.224;2023-02-26T17:52:52;151.60;;;73.23;;
19923;SDS011;10124;53.068;18.224;2023-02-26T17:55:21;188.07;;;92.10;;
19923;SDS011;10124;53.068;18.224;2023-02-26T17:57:49;111.20;;;56.17;;
19923;SDS011;10124;53.068;18.224;2023-02-26T18:00:17;93.20;;;45.00;;
19923;SDS011;10124;53.068;18.224;2023-02-26T18:02:45;63.33;;;31.50;;
19923;SDS011;10124;53.068;18.224;2023-02-26T18:05:13;191.93;;;86.57;;
19923;SDS011;10124;53.068;18.224;2023-02-26T18:07:41;156.20;;;75.17;;
19923;SDS011;10124;53.068;18.224;2023-02-26T18:10:20;131.27;;;60.07;;
19923;SDS011;10124;53.068;18.224;2023-02-26T18:12:51;95.13;;;46.43;;
19923;SDS011;10124;53.068;18.224;2023-02-26T18:15:19;136.80;;;61.23;;
19923;SDS011;10124;53.068;18.224;2023-02-26T18:17:47;106.33;;;45.57;;
19923;SDS011;10124;53.068;18.224;2023-02-26T18:20:17;129.07;;;55.83;;
19923;SDS011;10124;53.068;18.224;2023-02-26T18:22:49;122.37;;;52.40;;
19923;SDS011;10124;53.068;18.224;2023-02-26T18:25:18;235.17;;;86.30;;
19923;SDS011;10124;53.068;18.224;2023-02-26T18:27:48;384.23;;;114.97;;
19923;SDS011;10124;53.068;18.224;2023-02-26T18:30:21;146.87;;;52.03;;
19923;SDS011;10124;53.068;18.224;2023-02-26T18:32:52;273.03;;;75.37;;
19923;SDS011;10124;53.068;18.224;2023-02-26T18:35:20;157.80;;;51.20;;
19923;SDS011;10124;53.068;18.224;2023-02-26T18:37:52;191.47;;;55.27;;
19923;SDS011;10124;53.068;18.224;2023-02-26T18:40:22;152.70;;;60.50;;
19923;SDS011;10124;53.068;18.224;2023-02-26T18:42:54;122.87;;;52.47;;
19923;SDS011;10124;53.068;18.224;2023-02-26T18:45:23;176.37;;;75.60;;
19923;SDS011;10124;53.068;18.224;2023-02-26T18:47:52;115.63;;;45.90;;
19923;SDS011;10124;53.068;18.224;2023-02-26T18:50:21;68.87;;;33.07;;
19923;SDS011;10124;53.068;18.224;2023-02-26T18:52:49;69.77;;;34.43;;
19923;SDS011;10124;53.068;18.224;2023-02-26T18:55:18;71.17;;;33.77;;
19923;SDS011;10124;53.068;18.224;2023-02-26T18:57:46;66.40;;;31.90;;
19923;SDS011;10124;53.068;18.224;2023-02-26T19:00:17;69.90;;;35.10;;
19923;SDS011;10124;53.068;18.224;2023-02-26T19:02:47;75.97;;;38.27;;
19923;SDS011;10124;53.068;18.224;2023-02-26T19:05:15;77.23;;;37.70;;
19923;SDS011;10124;53.068;18.224;2023-02-26T19:07:52;61.37;;;32.20;;
19923;SDS011;10124;53.068;18.224;2023-02-26T19:10:21;86.07;;;41.80;;
19923;SDS011;10124;53.068;18.224;2023-02-26T19:12:50;70.37;;;36.07;;
19923;SDS011;10124;53.068;18.224;2023-02-26T19:15:21;57.97;;;30.20;;
19923;SDS011;10124;53.068;18.224;2023-02-26T19:17:52;48.93;;;24.97;;
19923;SDS011;10124;53.068;18.224;2023-02-26T19:20:21;47.80;;;24.97;;
19923;SDS011;10124;53.068;18.224;2023-02-26T19:22:51;46.70;;;24.97;;
19923;SDS011;10124;53.068;18.224;2023-02-26T19:25:21;48.67;;;27.93;;
19923;SDS011;10124;53.068;18.224;2023-02-26T19:27:51;53.57;;;28.13;;
19923;SDS011;10124;53.068;18.224;2023-02-26T19:30:21;55.43;;;27.90;;
19923;SDS011;10124;53.068;18.224;2023-02-26T19:32:51;34.20;;;19.93;;
19923;SDS011;10124;53.068;18.224;2023-02-26T19:35:21;51.70;;;25.13;;
19923;SDS011;10124;53.068;18.224;2023-02-26T19:37:53;57.57;;;28.97;;
19923;SDS011;10124;53.068;18.224;2023-02-26T19:40:22;62.63;;;33.73;;
19923;SDS011;10124;53.068;18.224;2023-02-26T19:42:52;74.67;;;42.30;;
19923;SDS011;10124;53.068;18.224;2023-02-26T19:45:20;55.73;;;31.40;;
19923;SDS011;10124;53.068;18.224;2023-02-26T19:47:49;60.60;;;26.97;;
19923;SDS011;10124;53.068;18.224;2023-02-26T19:50:16;58.53;;;29.30;;
19923;SDS011;10124;53.068;18.224;2023-02-26T19:52:46;65.63;;;32.90;;
19923;SDS011;10124;53.068;18.224;2023-02-26T19:55:14;55.13;;;26.63;;
19923;SDS011;10124;53.068;18.224;2023-02-26T19:57:47;47.27;;;23.93;;
19923;SDS011;10124;53.068;18.224;2023-02-26T20:00:16;44.50;;;21.90;;
19923;SDS011;10124;53.068;18.224;2023-02-26T20:02:46;46.13;;;21.97;;
19923;SDS011;10124;53.068;18.224;2023-02-26T20:05:16;45.63;;;22.20;;
19923;SDS011;10124;53.068;18.224;2023-02-26T20:07:45;64.97;;;26.50;;
19923;SDS011;10124;53.068;18.224;2023-02-26T20:10:14;54.83;;;23.17;;
19923;SDS011;10124;53.068;18.224;2023-02-26T20:12:44;44.97;;;22.03;;
19923;SDS011;10124;53.068;18.224;2023-02-26T20:15:12;106.87;;;47.57;;
19923;SDS011;10124;53.068;18.224;2023-02-26T20:17:41;112.27;;;50.97;;
19923;SDS011;10124;53.068;18.224;2023-02-26T20:20:10;105.40;;;45.37;;
19923;SDS011;10124;53.068;18.224;2023-02-26T20:22:39;122.07;;;53.10;;
19923;SDS011;10124;53.068;18.224;2023-02-26T20:25:08;156.47;;;62.50;;
19923;SDS011;10124;53.068;18.224;2023-02-26T20:27:38;164.83;;;67.97;;
19923;SDS011;10124;53.068;18.224;2023-02-26T20:30:06;203.73;;;92.13;;
19923;SDS011;10124;53.068;18.224;2023-02-26T20:32:35;255.47;;;122.37;;
19923;SDS011;10124;53.068;18.224;2023-02-26T20:35:04;193.03;;;82.23;;
19923;SDS011;10124;53.068;18.224;2023-02-26T20:37:33;140.77;;;52.93;;
19923;SDS011;10124;53.068;18.224;2023-02-26T20:40:02;141.93;;;52.63;;
19923;SDS011;10124;53.068;18.224;2023-02-26T20:42:32;112.43;;;46.83;;
19923;SDS011;10124;53.068;18.224;2023-02-26T20:45:00;108.13;;;41.97;;
19923;SDS011;10124;53.068;18.224;2023-02-26T20:47:31;133.17;;;48.47;;
19923;SDS011;10124;53.068;18.224;2023-02-26T20:50:00;76.57;;;29.43;;
19923;SDS011;10124;53.068;18.224;2023-02-26T20:52:31;71.47;;;27.23;;
19923;SDS011;10124;53.068;18.224;2023-02-26T20:54:59;48.03;;;19.87;;
19923;SDS011;10124;53.068;18.224;2023-02-26T20:57:29;67.17;;;26.20;;
19923;SDS011;10124;53.068;18.224;2023-02-26T20:59:59;159.60;;;53.00;;
19923;SDS011;10124;53.068;18.224;2023-02-26T21:02:36;128.50;;;42.67;;
19923;SDS011;10124;53.068;18.224;2023-02-26T21:05:05;66.33;;;25.83;;
19923;SDS011;10124;53.068;18.224;2023-02-26T21:07:36;41.37;;;22.07;;
19923;SDS011;10124;53.068;18.224;2023-02-26T21:10:10;74.83;;;28.47;;
19923;SDS011;10124;53.068;18.224;2023-02-26T21:12:41;49.57;;;23.50;;
19923;SDS011;10124;53.068;18.224;2023-02-26T21:15:10;47.90;;;22.50;;
19923;SDS011;10124;53.068;18.224;2023-02-26T21:17:42;47.33;;;22.90;;
19923;SDS011;10124;53.068;18.224;2023-02-26T21:20:11;44.37;;;22.37;;
19923;SDS011;10124;53.068;18.224;2023-02-26T21:22:45;48.07;;;24.00;;
19923;SDS011;10124;53.068;18.224;2023-02-26T21:25:14;43.10;;;22.30;;
19923;SDS011;10124;53.068;18.224;2023-02-26T21:27:42;41.70;;;22.03;;
19923;SDS011;10124;53.068;18.224;2023-02-26T21:30:11;30.53;;;17.47;;
19923;SDS011;10124;53.068;18.224;2023-02-26T21:32:40;41.00;;;19.03;;
19923;SDS011;10124;53.068;18.224;2023-02-26T21:35:10;38.63;;;19.37;;
19923;SDS011;10124;53.068;18.224;2023-02-26T21:37:43;42.93;;;21.17;;
19923;SDS011;10124;53.068;18.224;2023-02-26T21:40:12;57.90;;;25.10;;
19923;SDS011;10124;53.068;18.224;2023-02-26T21:42:41;51.47;;;26.43;;
19923;SDS011;10124;53.068;18.224;2023-02-26T21:45:10;50.07;;;24.43;;
19923;SDS011;10124;53.068;18.224;2023-02-26T21:47:40;43.50;;;22.30;;
19923;SDS011;10124;53.068;18.224;2023-02-26T21:50:08;48.10;;;22.90;;
19923;SDS011;10124;53.068;18.224;2023-02-26T21:52:37;45.10;;;24.80;;
19923;SDS011;10124;53.068;18.224;2023-02-26T21:55:08;66.67;;;35.07;;
19923;SDS011;10124;53.068;18.224;2023-02-26T21:57:39;68.63;;;32.97;;
19923;SDS011;10124;53.068;18.224;2023-02-26T22:00:07;143.10;;;49.53;;
19923;SDS011;10124;53.068;18.224;2023-02-26T22:02:42;127.20;;;44.27;;
19923;SDS011;10124;53.068;18.224;2023-02-26T22:05:10;110.43;;;35.93;;
19923;SDS011;10124;53.068;18.224;2023-02-26T22:07:39;85.17;;;31.80;;
19923;SDS011;10124;53.068;18.224;2023-02-26T22:10:07;104.80;;;35.20;;
19923;SDS011;10124;53.068;18.224;2023-02-26T22:12:36;84.57;;;32.07;;
19923;SDS011;10124;53.068;18.224;2023-02-26T22:15:05;81.90;;;29.93;;
19923;SDS011;10124;53.068;18.224;2023-02-26T22:17:33;56.10;;;23.23;;
19923;SDS011;10124;53.068;18.224;2023-02-26T22:20:02;52.80;;;21.63;;
19923;SDS011;10124;53.068;18.224;2023-02-26T22:22:36;58.50;;;23.40;;
19923;SDS011;10124;53.068;18.224;2023-02-26T22:25:05;53.40;;;25.23;;
19923;SDS011;10124;53.068;18.224;2023-02-26T22:27:34;55.07;;;26.53;;
19923;SDS011;10124;53.068;18.224;2023-02-26T22:30:02;51.23;;;21.97;;
19923;SDS011;10124;53.068;18.224;2023-02-26T22:32:31;51.07;;;22.80;;
19923;SDS011;10124;53.068;18.224;2023-02-26T22:35:00;57.93;;;23.00;;
19923;SDS011;10124;53.068;18.224;2023-02-26T22:37:28;49.57;;;22.67;;
19923;SDS011;10124;53.068;18.224;2023-02-26T22:39:56;44.37;;;21.60;;
19923;SDS011;10124;53.068;18.224;2023-02-26T22:42:24;55.03;;;27.00;;
19923;SDS011;10124;53.068;18.224;2023-02-26T22:44:52;60.03;;;28.57;;
19923;SDS011;10124;53.068;18.224;2023-02-26T22:47:20;73.40;;;37.77;;
19923;SDS011;10124;53.068;18.224;2023-02-26T22:49:48;112.17;;;52.27;;
19923;SDS011;10124;53.068;18.224;2023-02-26T22:52:16;115.43;;;51.77;;
19923;SDS011;10124;53.068;18.224;2023-02-26T22:54:45;90.43;;;41.20;;
19923;SDS011;10124;53.068;18.224;2023-02-26T22:57:13;33.93;;;17.93;;
19923;SDS011;10124;53.068;18.224;2023-02-26T22:59:42;21.83;;;12.90;;
19923;SDS011;10124;53.068;18.224;2023-02-26T23:02:11;34.03;;;16.40;;
19923;SDS011;10124;53.068;18.224;2023-02-26T23:04:38;37.37;;;17.07;;
19923;SDS011;10124;53.068;18.224;2023-02-26T23:07:07;33.07;;;15.90;;
19923;SDS011;10124;53.068;18.224;2023-02-26T23:09:36;27.53;;;15.47;;
19923;SDS011;10124;53.068;18.224;2023-02-26T23:12:04;30.77;;;15.43;;
19923;SDS011;10124;53.068;18.224;2023-02-26T23:14:33;30.37;;;15.53;;
19923;SDS011;10124;53.068;18.224;2023-02-26T23:17:01;29.43;;;16.13;;
19923;SDS011;10124;53.068;18.224;2023-02-26T23:19:30;28.00;;;15.17;;
19923;SDS011;10124;53.068;18.224;2023-02-26T23:21:58;36.80;;;17.80;;
19923;SDS011;10124;53.068;18.224;2023-02-26T23:24:26;32.00;;;17.27;;
19923;SDS011;10124;53.068;18.224;2023-02-26T23:26:54;36.10;;;18.67;;
19923;SDS011;10124;53.068;18.224;2023-02-26T23:29:22;35.83;;;17.67;;
19923;SDS011;10124;53.068;18.224;2023-02-26T23:31:50;29.20;;;16.50;;
19923;SDS011;10124;53.068;18.224;2023-02-26T23:34:19;26.57;;;14.33;;
19923;SDS011;10124;53.068;18.224;2023-02-26T23:36:47;30.27;;;15.50;;
19923;SDS011;10124;53.068;18.224;2023-02-26T23:39:15;29.30;;;14.27;;
19923;SDS011;10124;53.068;18.224;2023-02-26T23:41:43;38.60;;;16.37;;
19923;SDS011;10124;53.068;18.224;2023-02-26T23:44:11;50.40;;;19.83;;
19923;SDS011;10124;53.068;18.224;2023-02-26T23:46:40;74.30;;;29.17;;
19923;SDS011;10124;53.068;18.224;2023-02-26T23:49:08;90.07;;;32.77;;
19923;SDS011;10124;53.068;18.224;2023-02-26T23:51:36;77.50;;;31.90;;
19923;SDS011;10124;53.068;18.224;2023-02-26T23:54:04;41.07;;;18.90;;
19923;SDS011;10124;53.068;18.224;2023-02-26T23:56:33;25.10;;;14.27;;
19923;SDS011;10124;53.068;18.224;2023-02-26T23:59:01;24.67;;;13.97;;
